Time;durP1;ratioP1;P1;durP2;ratioP2;P2;SDS_P1;SDS_P2;PMS_P1;PMS_P2;Temp;Humidity;BMP_temperature;BMP_pressure;BME280_temperature;BME280_humidity;BME280_pressure;Samples;Min_cycle;Max_cycle;Signal;HPM_P1;HPM_P2
2021/07/16 00:01:06;;;;;;;10.32;4.80;;;;;;;17.79;62.11;96203.31;5034146;28;20059;-64
2021/07/16 00:03:31;;;;;;;12.82;4.53;;;;;;;17.78;62.27;96196.31;5034238;28;20056;-64
2021/07/16 00:05:57;;;;;;;7.20;4.75;;;;;;;17.84;62.36;96200.31;5034068;28;20419;-64
2021/07/16 00:08:23;;;;;;;9.63;4.85;;;;;;;17.89;62.35;96190.25;5034070;28;20036;-64
2021/07/16 00:10:49;;;;;;;9.52;4.95;;;;;;;17.90;62.44;96191.94;5033936;28;20101;-64
2021/07/16 00:13:14;;;;;;;9.75;4.88;;;;;;;17.88;62.55;96196.53;5033928;28;20096;-64
2021/07/16 00:15:40;;;;;;;9.93;4.60;;;;;;;17.82;62.68;96203.06;5033781;28;20025;-64
2021/07/16 00:18:05;;;;;;;9.07;5.13;;;;;;;17.77;62.97;96198.16;5033904;28;20096;-64
2021/07/16 00:20:31;;;;;;;8.20;5.13;;;;;;;17.72;63.09;96196.75;5033571;28;20021;-64
2021/07/16 00:22:56;;;;;;;8.60;4.90;;;;;;;17.68;63.24;96191.72;5033741;28;20091;-64
2021/07/16 00:25:22;;;;;;;10.52;5.07;;;;;;;17.70;63.57;96188.94;5033699;28;20036;-64
2021/07/16 00:27:48;;;;;;;11.48;6.18;;;;;;;17.60;63.53;96185.28;5033677;28;20014;-64
2021/07/16 00:30:14;;;;;;;9.95;4.85;;;;;;;17.53;63.89;96180.47;5033615;28;20041;-64
2021/07/16 00:32:40;;;;;;;9.38;4.78;;;;;;;17.51;64.07;96185.00;5033620;28;20030;-64
2021/07/16 00:35:06;;;;;;;11.43;4.82;;;;;;;17.52;64.30;96176.09;5033598;28;20021;-64
2021/07/16 00:37:32;;;;;;;11.48;4.90;;;;;;;17.53;64.54;96183.09;5033483;28;20033;-64
2021/07/16 00:39:57;;;;;;;6.63;4.47;;;;;;;17.52;64.28;96183.22;5033570;28;20427;-64
2021/07/16 00:42:23;;;;;;;11.48;5.00;;;;;;;17.52;63.79;96180.56;5033444;28;20056;-64
2021/07/16 00:44:49;;;;;;;12.48;5.22;;;;;;;17.56;63.74;96182.03;5033296;28;20018;-64
2021/07/16 00:47:14;;;;;;;11.18;5.75;;;;;;;17.60;64.42;96172.91;5033357;28;20028;-64
2021/07/16 00:49:40;;;;;;;14.05;5.47;;;;;;;17.60;64.21;96175.56;5033326;28;20116;-64
2021/07/16 00:52:06;;;;;;;7.85;4.82;;;;;;;17.66;64.57;96175.13;5033227;28;20041;-64
2021/07/16 00:54:33;;;;;;;10.02;4.53;;;;;;;17.62;64.72;96176.31;5033279;28;20049;-64
2021/07/16 00:56:58;;;;;;;12.55;6.10;;;;;;;17.52;64.69;96170.81;5033209;28;20468;-64
2021/07/16 00:59:25;;;;;;;7.78;4.90;;;;;;;17.50;64.25;96164.81;5033178;28;20082;-64
2021/07/16 01:01:54;;;;;;;7.50;5.10;;;;;;;17.57;63.92;96161.72;5033261;28;20021;-64
2021/07/16 01:04:20;;;;;;;9.95;4.90;;;;;;;17.60;64.72;96166.75;5033164;28;20025;-64
2021/07/16 01:06:45;;;;;;;10.25;5.10;;;;;;;17.57;64.88;96169.66;5033141;28;20087;-64
2021/07/16 01:09:11;;;;;;;8.77;4.80;;;;;;;17.50;64.96;96172.75;5033118;28;20116;-64
2021/07/16 01:11:36;;;;;;;9.18;5.38;;;;;;;17.51;65.05;96171.78;5033162;28;20033;-64
2021/07/16 01:14:02;;;;;;;9.00;5.70;;;;;;;17.51;64.34;96168.28;5033150;28;20426;-64
2021/07/16 01:16:29;;;;;;;11.57;5.30;;;;;;;17.55;64.24;96173.25;5032933;28;20104;-64
2021/07/16 01:18:54;;;;;;;15.23;5.85;;;;;;;17.60;64.28;96166.75;5033012;28;20025;-64
2021/07/16 01:21:23;;;;;;;10.48;5.20;;;;;;;17.62;64.12;96172.81;5032970;28;20501;-64
2021/07/16 01:23:51;;;;;;;9.70;5.45;;;;;;;17.61;63.76;96174.59;5032862;28;20084;-64
2021/07/16 01:26:17;;;;;;;14.35;5.78;;;;;;;17.65;63.75;96168.16;5032910;28;20053;-64
2021/07/16 01:28:42;;;;;;;11.02;4.88;;;;;;;17.67;63.53;96165.38;5033045;28;20056;-64
2021/07/16 01:31:10;;;;;;;8.52;5.35;;;;;;;17.66;64.24;96167.19;5033024;28;20036;-64
2021/07/16 01:33:35;;;;;;;11.48;4.93;;;;;;;17.65;64.03;96172.56;5036782;28;20049;-64
2021/07/16 01:36:01;;;;;;;11.73;5.25;;;;;;;17.62;64.41;96170.16;5036830;28;20080;-64
2021/07/16 01:38:27;;;;;;;6.43;5.18;;;;;;;17.64;64.25;96170.91;5036833;28;20049;-64
2021/07/16 01:40:54;;;;;;;9.80;5.50;;;;;;;17.65;64.33;96167.28;5036907;28;20096;-64
2021/07/16 01:43:20;;;;;;;8.07;4.70;;;;;;;17.60;64.18;96164.97;5036655;28;20018;-64
2021/07/16 01:45:46;;;;;;;6.13;4.28;;;;;;;17.54;64.50;96160.13;5036670;28;20475;-64
2021/07/16 01:48:14;;;;;;;6.68;4.43;;;;;;;17.44;64.47;96162.59;5036740;28;20044;-64
2021/07/16 01:50:46;;;;;;;11.80;5.70;;;;;;;17.37;64.88;96161.38;5036508;28;20057;-64
2021/07/16 01:53:13;;;;;;;9.18;5.10;;;;;;;17.41;65.36;96157.53;5036706;28;20022;-64
2021/07/16 01:55:39;;;;;;;9.68;4.50;;;;;;;17.40;65.08;96158.50;5036424;28;20053;-64
2021/07/16 01:58:08;;;;;;;13.20;4.82;;;;;;;17.38;65.39;96155.97;5036491;28;20792;-64
2021/07/16 02:00:37;;;;;;;9.32;5.50;;;;;;;17.36;65.19;96147.28;5036406;28;20036;-64
2021/07/16 02:03:05;;;;;;;9.55;4.63;;;;;;;17.37;65.20;96156.06;5036417;28;20060;-64
2021/07/16 02:05:31;;;;;;;9.45;4.43;;;;;;;17.33;65.15;96158.09;5036351;28;20029;-64
2021/07/16 02:08:06;;;;;;;10.73;4.53;;;;;;;17.30;65.20;96153.00;5036357;28;20538;-64
2021/07/16 02:10:32;;;;;;;6.50;5.13;;;;;;;17.28;65.38;96157.59;5036604;28;20375;-64
2021/07/16 02:12:58;;;;;;;7.68;4.47;;;;;;;17.26;65.33;96149.75;5036326;28;20079;-64
2021/07/16 02:15:30;;;;;;;7.63;4.30;;;;;;;17.22;65.21;96144.78;5036096;28;20025;-64
2021/07/16 02:17:56;;;;;;;10.27;5.03;;;;;;;17.20;64.80;96144.91;5036266;28;20029;-64
2021/07/16 02:20:27;;;;;;;13.80;4.18;;;;;;;17.24;65.38;96140.22;5035974;28;20079;-64
2021/07/16 02:22:55;;;;;;;7.57;4.30;;;;;;;17.23;65.33;96142.03;5036034;28;20537;-64
2021/07/16 02:25:23;;;;;;;17.77;5.60;;;;;;;17.15;65.41;96139.94;5036002;28;20487;-64
2021/07/16 02:27:51;;;;;;;11.70;4.63;;;;;;;17.14;65.72;96140.91;5035940;28;20491;-64
2021/07/16 02:30:18;;;;;;;12.15;4.53;;;;;;;17.08;65.88;96141.34;5035984;28;20032;-64
2021/07/16 02:32:45;;;;;;;8.73;5.07;;;;;;;17.05;65.59;96136.25;5035927;28;20013;-64
2021/07/16 02:35:12;;;;;;;6.40;4.35;;;;;;;17.05;65.91;96137.09;5035805;28;20049;-64
2021/07/16 02:37:38;;;;;;;6.55;4.97;;;;;;;17.01;65.75;96132.94;5035658;28;20428;-64
2021/07/16 02:40:06;;;;;;;9.68;4.43;;;;;;;16.98;65.93;96130.53;5035761;28;20096;-64
2021/07/16 02:42:31;;;;;;;7.07;4.40;;;;;;;16.93;66.35;96136.16;5035721;28;20025;-64
2021/07/16 02:44:58;;;;;;;10.13;4.97;;;;;;;16.91;66.34;96135.41;5035610;28;20394;-64
2021/07/16 02:47:23;;;;;;;9.50;4.82;;;;;;;16.90;66.11;96146.94;5035582;28;20029;-64
2021/07/16 02:49:49;;;;;;;9.70;4.80;;;;;;;16.97;66.18;96154.41;5035626;28;20026;-64
2021/07/16 02:52:15;;;;;;;9.15;4.80;;;;;;;16.98;66.12;96145.56;5035345;28;20037;-64
2021/07/16 02:54:40;;;;;;;9.20;4.38;;;;;;;17.01;65.85;96140.88;5035544;28;20042;-64
2021/07/16 02:57:06;;;;;;;9.82;4.55;;;;;;;17.04;65.23;96147.78;5035391;28;20021;-64
2021/07/16 02:59:31;;;;;;;7.32;4.57;;;;;;;17.02;65.12;96147.88;5035389;28;20026;-64
2021/07/16 03:01:58;;;;;;;7.07;4.50;;;;;;;17.09;66.01;96142.16;5035309;28;20480;-64
2021/07/16 03:04:25;;;;;;;5.32;4.00;;;;;;;17.11;65.83;96140.28;5035214;28;20017;-64
2021/07/16 03:06:51;;;;;;;6.10;4.05;;;;;;;17.08;66.28;96143.13;5035292;28;20053;-64
2021/07/16 03:09:17;;;;;;;12.18;4.63;;;;;;;17.05;65.97;96138.88;5035132;28;20105;-64
2021/07/16 03:11:43;;;;;;;6.05;4.43;;;;;;;17.11;65.74;96137.63;5035113;28;20084;-64
2021/07/16 03:14:09;;;;;;;6.78;4.43;;;;;;;17.15;66.01;96142.59;5035095;28;20498;-64
2021/07/16 03:16:35;;;;;;;7.88;4.10;;;;;;;17.19;66.10;96148.50;5034918;28;20025;-64
2021/07/16 03:19:01;;;;;;;4.78;4.30;;;;;;;17.18;65.84;96144.16;5034987;28;20056;-64
2021/07/16 03:21:27;;;;;;;7.60;4.80;;;;;;;17.24;66.07;96156.09;5034887;28;20032;-64
2021/07/16 03:23:52;;;;;;;10.55;4.38;;;;;;;17.22;66.12;96158.00;5034937;28;20030;-64
2021/07/16 03:26:18;;;;;;;9.27;4.45;;;;;;;17.24;65.95;96156.94;5034817;28;20053;-64
2021/07/16 03:28:43;;;;;;;8.30;4.32;;;;;;;17.28;65.91;96152.28;5034890;28;20026;-64
2021/07/16 03:31:09;;;;;;;15.18;4.43;;;;;;;17.30;65.75;96153.00;5034839;28;20468;-64
2021/07/16 03:33:35;;;;;;;6.30;4.80;;;;;;;17.38;65.12;96161.25;5034686;28;20028;-64
2021/07/16 03:36:01;;;;;;;10.25;4.63;;;;;;;17.46;65.11;96160.69;5034554;28;20021;-63
2021/07/16 03:38:27;;;;;;;7.57;4.50;;;;;;;17.63;65.61;96155.97;5034576;28;20148;-64
2021/07/16 03:40:55;;;;;;;4.88;3.70;;;;;;;17.73;64.99;96156.97;5034757;28;20026;-64
2021/07/16 03:43:21;;;;;;;7.47;4.63;;;;;;;17.91;64.96;96152.13;5034698;28;20104;-64
2021/07/16 03:45:47;;;;;;;9.70;4.18;;;;;;;18.18;64.06;96159.00;5034510;28;20025;-64
2021/07/16 03:48:12;;;;;;;9.55;3.47;;;;;;;18.46;62.91;96161.38;5034353;28;20040;-64
2021/07/16 03:50:38;;;;;;;6.68;3.72;;;;;;;18.81;62.77;96163.13;5034254;28;20479;-64
2021/07/16 03:53:03;;;;;;;7.55;4.10;;;;;;;19.15;61.53;96158.84;5034549;28;20100;-64
2021/07/16 03:55:29;;;;;;;9.43;3.45;;;;;;;19.46;60.49;96166.97;5033679;28;20450;-64
2021/07/16 03:57:55;;;;;;;9.48;4.05;;;;;;;19.78;59.45;96166.19;5034422;28;20047;-64
2021/07/16 04:00:26;;;;;;;8.55;3.50;;;;;;;20.13;58.54;96169.59;5034307;28;20021;-64
2021/07/16 04:02:52;;;;;;;9.98;3.28;;;;;;;20.52;58.08;96173.50;5034286;28;20053;-64
2021/07/16 04:05:18;;;;;;;7.75;3.53;;;;;;;20.88;57.37;96175.81;5034192;28;20428;-64
2021/07/16 04:07:48;;;;;;;6.25;3.65;;;;;;;21.26;56.29;96184.97;5034028;28;20048;-64
2021/07/16 04:10:16;;;;;;;12.35;4.30;;;;;;;21.63;55.58;96174.72;5033983;28;20029;-64
2021/07/16 04:12:48;;;;;;;5.90;3.25;;;;;;;21.99;54.78;96172.44;5033997;28;20534;-64
2021/07/16 04:15:13;;;;;;;6.53;3.58;;;;;;;22.33;53.88;96166.69;5034049;28;20078;-64
2021/07/16 04:17:39;;;;;;;11.10;4.07;;;;;;;22.71;53.08;96172.13;5033966;28;20387;-64
2021/07/16 04:20:05;;;;;;;8.60;2.97;;;;;;;23.07;52.51;96175.94;5033871;28;20510;-64
2021/07/16 04:22:31;;;;;;;6.65;3.05;;;;;;;23.49;52.49;96177.34;5033719;28;20017;-64
2021/07/16 04:24:56;;;;;;;7.05;3.42;;;;;;;23.88;50.99;96173.59;5033892;28;20105;-64
2021/07/16 04:27:22;;;;;;;3.50;2.70;;;;;;;24.25;50.07;96176.28;5033791;28;20049;-64
2021/07/16 04:29:47;;;;;;;10.20;3.20;;;;;;;24.54;49.69;96178.72;5033779;28;20032;-64
2021/07/16 04:32:14;;;;;;;6.97;3.45;;;;;;;24.83;49.14;96176.75;5033638;28;20067;-64
2021/07/16 04:34:40;;;;;;;7.93;3.55;;;;;;;25.16;49.00;96176.16;5033540;28;20045;-64
2021/07/16 04:37:08;;;;;;;6.50;3.03;;;;;;;25.51;47.55;96185.00;5033463;28;20061;-64
2021/07/16 04:39:34;;;;;;;8.43;3.63;;;;;;;25.84;46.90;96185.13;5033505;28;20013;-64
2021/07/16 04:42:00;;;;;;;6.57;3.13;;;;;;;26.09;45.99;96181.66;5033587;28;20032;-64
2021/07/16 04:44:26;;;;;;;8.98;2.92;;;;;;;26.26;45.64;96179.84;5033431;28;20025;-64
2021/07/16 04:46:51;;;;;;;4.28;3.40;;;;;;;26.44;44.51;96174.34;5033380;28;20035;-64
2021/07/16 04:49:18;;;;;;;4.63;3.35;;;;;;;26.69;43.72;96173.47;5033317;28;20053;-64
2021/07/16 04:51:43;;;;;;;6.35;3.30;;;;;;;26.88;43.09;96175.00;5033134;28;20042;-64
2021/07/16 04:54:10;;;;;;;8.40;3.40;;;;;;;27.15;42.47;96172.09;5033345;28;20029;-64
2021/07/16 04:56:36;;;;;;;10.57;3.50;;;;;;;27.38;40.90;96169.50;5033116;28;20087;-64
2021/07/16 04:59:02;;;;;;;10.25;4.00;;;;;;;27.53;40.91;96169.59;5033354;28;20018;-64
2021/07/16 05:01:28;;;;;;;9.48;3.22;;;;;;;27.77;40.38;96169.66;5033267;28;20032;-64
2021/07/16 05:03:54;;;;;;;5.97;3.58;;;;;;;28.08;42.54;96179.59;5033166;28;20034;-65
2021/07/16 05:06:21;;;;;;;8.05;3.50;;;;;;;28.30;43.08;96167.19;5032278;28;20033;-64
2021/07/16 05:08:47;;;;;;;6.93;3.47;;;;;;;28.57;41.58;96172.19;5033128;28;20153;-64
2021/07/16 05:11:14;;;;;;;8.63;3.50;;;;;;;28.77;39.02;96169.81;5033075;28;20112;-64
2021/07/16 05:13:41;;;;;;;10.98;3.42;;;;;;;28.96;39.88;96170.34;5033033;28;20112;-64
2021/07/16 05:16:10;;;;;;;9.52;3.58;;;;;;;29.23;40.85;96179.63;5032950;28;20041;-64
2021/07/16 05:18:36;;;;;;;10.23;3.95;;;;;;;29.50;38.65;96174.59;5033019;28;20017;-64
2021/07/16 05:21:04;;;;;;;6.50;3.28;;;;;;;29.78;40.92;96181.19;5033011;28;20025;-64
2021/07/16 05:23:30;;;;;;;6.53;3.33;;;;;;;29.95;38.90;96176.38;5032930;28;20025;-64
2021/07/16 05:25:56;;;;;;;10.13;3.53;;;;;;;30.18;39.05;96179.97;5032947;28;20112;-64
2021/07/16 05:28:21;;;;;;;5.82;2.92;;;;;;;30.31;39.96;96181.97;5033064;28;20022;-64
2021/07/16 05:30:48;;;;;;;8.23;3.45;;;;;;;30.47;40.02;96180.88;5032892;28;20049;-64
2021/07/16 05:33:14;;;;;;;5.07;3.38;;;;;;;30.66;39.10;96173.16;5032897;28;20021;-64
2021/07/16 05:35:40;;;;;;;9.48;3.25;;;;;;;30.94;39.84;96180.47;5032761;28;20030;-64
2021/07/16 05:38:06;;;;;;;4.28;3.13;;;;;;;31.19;40.55;96171.88;5032885;28;20472;-64
2021/07/16 05:40:32;;;;;;;6.30;3.47;;;;;;;31.33;37.89;96172.81;5032849;28;20013;-64
2021/07/16 05:42:59;;;;;;;6.00;3.35;;;;;;;31.59;39.93;96168.56;5032885;28;20036;-64
2021/07/16 05:45:24;;;;;;;9.32;3.60;;;;;;;31.87;37.98;96179.28;5032821;28;20475;-64
2021/07/16 05:47:50;;;;;;;8.98;3.45;;;;;;;32.15;38.41;96169.41;5032819;28;20029;-64
2021/07/16 05:50:16;;;;;;;7.25;3.25;;;;;;;32.44;37.33;96172.78;5032502;28;20032;-64
2021/07/16 05:52:41;;;;;;;9.52;2.92;;;;;;;32.65;36.65;96171.78;5032777;28;20053;-64
2021/07/16 05:55:07;;;;;;;7.07;3.72;;;;;;;32.87;36.12;96173.44;5032868;28;20104;-64
2021/07/16 05:57:33;;;;;;;9.85;3.55;;;;;;;32.88;34.88;96169.69;5032609;28;20029;-64
2021/07/16 05:59:58;;;;;;;7.63;3.72;;;;;;;33.08;36.32;96169.69;5032592;28;20509;-64
2021/07/16 06:02:24;;;;;;;11.02;3.58;;;;;;;33.26;34.50;96176.34;5032575;28;20025;-64
2021/07/16 06:04:50;;;;;;;9.63;3.28;;;;;;;33.41;35.86;96165.25;5032629;28;20029;-64
2021/07/16 06:07:15;;;;;;;8.95;3.50;;;;;;;33.57;32.42;96168.50;5032694;28;20033;-64
2021/07/16 06:09:41;;;;;;;5.65;3.53;;;;;;;33.68;34.85;96164.34;5032562;28;20030;-64
2021/07/16 06:12:07;;;;;;;12.05;3.05;;;;;;;33.75;31.34;96168.69;5032617;28;20026;-64
2021/07/16 06:14:33;;;;;;;5.53;3.05;;;;;;;33.80;29.72;96170.75;5032461;28;20022;-64
2021/07/16 06:16:59;;;;;;;8.13;2.97;;;;;;;33.38;28.16;96163.78;5032375;28;20030;-64
2021/07/16 06:19:25;;;;;;;6.55;2.80;;;;;;;33.40;32.81;96164.41;5035724;28;20109;-64
2021/07/16 06:21:50;;;;;;;9.73;3.03;;;;;;;33.43;30.69;96163.13;5036060;28;20028;-64
2021/07/16 06:24:16;;;;;;;9.90;2.65;;;;;;;33.23;28.66;96160.50;5035988;28;20084;-64
2021/07/16 06:26:42;;;;;;;4.88;2.65;;;;;;;33.28;29.76;96164.22;5036011;28;20021;-64
2021/07/16 06:29:08;;;;;;;10.63;2.40;;;;;;;33.52;29.66;96161.03;5035995;28;20498;-64
2021/07/16 06:31:34;;;;;;;12.32;2.88;;;;;;;33.37;29.87;96159.41;5035943;28;20026;-64
2021/07/16 06:34:02;;;;;;;7.72;2.60;;;;;;;33.51;30.76;96154.78;5035872;28;20079;-64
2021/07/16 06:36:28;;;;;;;8.32;2.80;;;;;;;33.80;28.92;96154.50;5034441;28;20036;-64
2021/07/16 06:38:54;;;;;;;8.55;2.50;;;;;;;33.78;30.15;96154.69;5035827;28;20025;-64
2021/07/16 06:41:19;;;;;;;6.63;2.80;;;;;;;33.90;29.48;96162.13;5035683;28;20551;-64
2021/07/16 06:43:45;;;;;;;7.47;2.65;;;;;;;33.77;28.90;96161.16;5035722;28;20033;-64
2021/07/16 06:46:12;;;;;;;6.22;2.72;;;;;;;33.70;30.22;96152.22;5035665;28;20104;-64
2021/07/16 06:48:42;;;;;;;11.18;2.92;;;;;;;33.81;31.13;96148.00;5035620;28;20395;-64
2021/07/16 06:51:08;;;;;;;10.90;2.53;;;;;;;33.85;29.39;96161.94;5035398;28;20042;-63
2021/07/16 06:53:33;;;;;;;8.63;2.83;;;;;;;33.62;29.26;96157.91;5035516;28;20498;-64
2021/07/16 06:55:59;;;;;;;6.72;2.38;;;;;;;33.72;30.42;96160.13;5035452;28;20025;-64
2021/07/16 06:58:24;;;;;;;13.25;3.03;;;;;;;33.95;31.31;96156.06;5035334;28;20361;-64
2021/07/16 07:00:50;;;;;;;9.70;2.78;;;;;;;33.89;28.66;96153.16;5035364;28;20030;-64
2021/07/16 07:03:16;;;;;;;12.05;2.67;;;;;;;34.01;31.16;96147.06;5035287;28;20030;-64
2021/07/16 07:05:42;;;;;;;8.15;2.83;;;;;;;34.11;28.24;96154.72;5035369;28;20084;-64
2021/07/16 07:08:07;;;;;;;6.32;2.47;;;;;;;34.16;29.01;96153.03;5035235;28;20029;-64
2021/07/16 07:10:33;;;;;;;7.00;2.78;;;;;;;34.36;28.89;96151.22;5035182;28;20037;-64
2021/07/16 07:13:02;;;;;;;8.10;2.85;;;;;;;34.47;28.35;96160.56;5035079;28;20395;-64
2021/07/16 07:15:28;;;;;;;3.28;2.03;;;;;;;34.82;27.77;96149.22;5035024;28;20021;-64
2021/07/16 07:17:54;;;;;;;8.40;2.80;;;;;;;34.85;26.95;96151.47;5035066;28;20034;-64
2021/07/16 07:20:19;;;;;;;5.07;2.17;;;;;;;34.99;26.43;96149.47;5035010;28;20031;-65
2021/07/16 07:22:45;;;;;;;6.22;3.10;;;;;;;35.01;26.55;96141.94;5035012;28;20063;-65
2021/07/16 07:25:11;;;;;;;7.65;2.70;;;;;;;34.86;28.29;96150.44;5034837;28;20026;-64
2021/07/16 07:27:36;;;;;;;8.30;2.47;;;;;;;34.57;27.76;96149.19;5034804;28;20033;-64
2021/07/16 07:30:04;;;;;;;4.53;2.38;;;;;;;34.64;27.36;96145.38;5034037;28;20021;-64
2021/07/16 07:32:29;;;;;;;3.78;2.65;;;;;;;34.80;28.64;96145.91;5034853;28;20022;-64
2021/07/16 07:34:55;;;;;;;12.32;3.42;;;;;;;34.81;28.41;96147.56;5034768;28;20040;-64
2021/07/16 07:37:20;;;;;;;15.02;3.58;;;;;;;34.52;26.79;96142.56;5034475;28;20033;-64
2021/07/16 07:39:46;;;;;;;7.47;3.10;;;;;;;34.15;25.98;96147.84;5034731;28;20036;-64
2021/07/16 07:42:15;;;;;;;5.60;2.15;;;;;;;33.93;26.10;96150.03;5034582;28;20448;-65
2021/07/16 07:44:41;;;;;;;4.40;2.78;;;;;;;34.19;24.84;96154.47;5034630;28;20022;-64
2021/07/16 07:47:07;;;;;;;6.50;3.15;;;;;;;34.19;27.38;96143.63;5034461;28;20026;-64
2021/07/16 07:49:33;;;;;;;6.53;2.63;;;;;;;34.31;24.94;96151.88;5034463;28;20037;-64
2021/07/16 07:51:58;;;;;;;12.00;2.75;;;;;;;34.46;25.30;96148.84;5034093;28;20076;-65
2021/07/16 07:54:24;;;;;;;10.88;2.90;;;;;;;34.52;27.43;96155.31;5034428;28;20059;-65
2021/07/16 07:56:50;;;;;;;4.97;2.63;;;;;;;34.82;26.00;96148.41;5034363;28;20483;-65
2021/07/16 07:59:15;;;;;;;11.25;3.15;;;;;;;34.94;24.92;96151.22;5034304;28;20067;-65
2021/07/16 08:01:41;;;;;;;5.80;2.75;;;;;;;35.06;25.84;96152.13;5034194;28;20036;-65
2021/07/16 08:04:06;;;;;;;6.75;2.92;;;;;;;34.63;24.00;96153.75;5034136;28;20029;-65
2021/07/16 08:06:32;;;;;;;4.40;2.88;;;;;;;34.47;25.30;96144.28;5034117;28;20037;-64
2021/07/16 08:08:58;;;;;;;10.63;2.72;;;;;;;34.72;25.39;96154.31;5034131;28;20032;-64
2021/07/16 08:11:24;;;;;;;7.50;2.08;;;;;;;34.33;24.55;96141.66;5034170;28;20112;-64
2021/07/16 08:13:50;;;;;;;4.30;2.15;;;;;;;33.71;25.99;96140.31;5034058;28;20376;-64
2021/07/16 08:16:15;;;;;;;4.78;2.33;;;;;;;33.61;25.97;96137.25;5032614;28;20037;-64
2021/07/16 08:18:41;;;;;;;8.13;2.22;;;;;;;33.93;29.52;96141.88;5033829;28;20029;-64
2021/07/16 08:21:06;;;;;;;6.65;2.08;;;;;;;34.38;27.16;96139.13;5033775;28;20044;-64
2021/07/16 08:23:32;;;;;;;6.70;1.95;;;;;;;34.59;24.99;96142.50;5033841;28;20037;-64
2021/07/16 08:25:57;;;;;;;3.47;2.08;;;;;;;34.48;24.05;96137.78;5033775;28;20036;-65
2021/07/16 08:28:23;;;;;;;12.88;2.53;;;;;;;34.57;24.79;96130.19;5033679;28;20021;-64
2021/07/16 08:30:48;;;;;;;10.18;1.77;;;;;;;34.75;25.92;96133.00;5033714;28;20451;-65
2021/07/16 08:33:14;;;;;;;6.47;2.15;;;;;;;34.84;24.07;96127.28;5033686;28;20022;-65
2021/07/16 08:35:40;;;;;;;8.82;2.50;;;;;;;35.14;24.89;96132.81;5033597;28;20033;-64
2021/07/16 08:38:08;;;;;;;3.22;1.85;;;;;;;35.06;22.37;96133.09;5033547;28;20030;-65
2021/07/16 08:40:34;;;;;;;4.50;2.15;;;;;;;34.69;23.58;96133.03;5033389;28;20013;-65
2021/07/16 08:42:59;;;;;;;5.32;2.30;;;;;;;34.51;24.67;96132.75;5033573;28;20375;-65
2021/07/16 08:45:26;;;;;;;16.30;2.53;;;;;;;34.25;23.57;96123.75;5033493;28;20017;-64
2021/07/16 08:47:52;;;;;;;4.05;2.00;;;;;;;34.32;23.23;96121.00;5033436;28;20029;-65
2021/07/16 08:50:18;;;;;;;5.93;1.88;;;;;;;34.26;25.92;96121.91;5033111;28;20022;-64
2021/07/16 08:52:46;;;;;;;10.50;2.30;;;;;;;34.36;26.11;96121.38;5033317;28;20104;-64
2021/07/16 08:55:12;;;;;;;2.97;1.80;;;;;;;34.64;26.08;96123.66;5033404;28;20056;-64
2021/07/16 08:57:38;;;;;;;7.00;2.60;;;;;;;34.87;28.25;96126.81;5033306;28;20048;-65
2021/07/16 09:00:07;;;;;;;5.70;2.13;;;;;;;34.80;23.95;96116.03;5033337;28;20014;-64
2021/07/16 09:02:34;;;;;;;10.82;2.42;;;;;;;34.25;24.17;96128.38;5033316;28;20125;-64
2021/07/16 09:05:04;;;;;;;3.28;1.90;;;;;;;34.14;25.46;96125.31;5033101;28;20490;-65
2021/07/16 09:07:39;;;;;;;;;;;;;;;33.84;24.83;96114.19;5033611;28;20026;-64
2021/07/16 09:10:07;;;;;;;5.65;2.42;;;;;;;33.63;24.67;96111.63;5033152;28;19920;-64
2021/07/16 09:12:37;;;;;;;5.80;2.80;;;;;;;33.91;27.20;96106.84;5033192;28;20033;-64
2021/07/16 09:15:15;;;;;;;11.00;2.53;;;;;;;34.34;25.57;96110.75;5033013;28;20022;-65
2021/07/16 09:17:46;;;;;;;6.50;2.40;;;;;;;34.08;25.38;96112.59;5032924;28;20032;-65
2021/07/16 09:20:25;;;;;;;7.35;2.50;;;;;;;33.83;25.10;96109.84;5033103;28;20033;-65
2021/07/16 09:23:09;;;;;;;6.00;2.47;;;;;;;33.75;27.42;96109.03;5032917;28;20483;-65
2021/07/16 09:25:36;;;;;;;5.35;2.40;;;;;;;34.04;27.14;96106.78;5033076;28;20091;-65
2021/07/16 09:28:02;;;;;;;9.70;2.53;;;;;;;34.07;25.73;96105.50;5032952;28;20375;-64
2021/07/16 09:30:29;;;;;;;6.97;2.35;;;;;;;33.76;24.30;96107.16;5032912;28;20024;-65
2021/07/16 09:33:09;;;;;;;7.70;2.70;;;;;;;33.55;27.29;96102.88;5032975;28;20018;-64
2021/07/16 09:35:41;;;;;;;8.30;2.80;;;;;;;33.56;27.97;96097.22;5032957;28;20037;-65
2021/07/16 09:38:14;;;;;;;7.53;2.60;;;;;;;33.77;27.46;96100.69;5033002;28;20470;-65
2021/07/16 09:40:52;;;;;;;7.95;2.63;;;;;;;33.55;25.97;96102.88;5032762;28;20021;-65
2021/07/16 09:43:21;;;;;;;7.35;2.55;;;;;;;33.29;26.64;96108.19;5033001;28;20176;-64
2021/07/16 09:46:06;;;;;;;11.57;3.28;;;;;;;33.33;26.70;96095.88;5032720;28;20548;-65
2021/07/16 09:48:39;;;;;;;19.67;3.05;;;;;;;33.41;26.12;96100.22;5032848;28;20029;-64
2021/07/16 09:51:17;;;;;;;9.18;3.05;;;;;;;32.93;25.74;96094.09;5032518;28;20534;-64
2021/07/16 09:53:54;;;;;;;14.93;2.85;;;;;;;32.77;29.02;96092.66;5035283;28;20041;-64
2021/07/16 09:56:19;;;;;;;6.70;3.00;;;;;;;33.15;28.85;96088.44;5036495;28;20025;-65
2021/07/16 09:58:46;;;;;;;10.73;2.88;;;;;;;33.46;28.10;96094.97;5036514;28;20072;-64
2021/07/16 10:01:12;;;;;;;4.05;3.08;;;;;;;33.25;26.35;96098.81;5036537;28;20060;-65
2021/07/16 10:03:39;;;;;;;11.07;3.42;;;;;;;33.17;26.62;96089.06;5036404;28;20049;-64
2021/07/16 10:06:07;;;;;;;5.97;3.30;;;;;;;33.38;27.84;96093.31;5036361;28;20064;-64
2021/07/16 10:08:34;;;;;;;14.07;3.35;;;;;;;33.42;25.92;96088.31;5036334;28;20471;-65
2021/07/16 10:11:03;;;;;;;6.43;3.33;;;;;;;33.39;26.02;96088.75;5036455;28;20033;-65
2021/07/16 10:13:32;;;;;;;5.97;2.65;;;;;;;33.27;25.94;96091.31;5036452;28;20499;-65
2021/07/16 10:15:58;;;;;;;10.80;3.50;;;;;;;33.01;25.92;96091.16;5036112;28;20503;-65
2021/07/16 10:18:25;;;;;;;7.13;3.25;;;;;;;32.80;27.00;96084.09;5036193;28;20037;-65
2021/07/16 10:20:51;;;;;;;6.35;3.28;;;;;;;32.69;26.04;96065.81;5036098;28;20037;-64
2021/07/16 10:23:16;;;;;;;11.55;3.10;;;;;;;32.90;27.25;96070.16;5036036;28;20021;-64
2021/07/16 10:25:45;;;;;;;5.45;3.03;;;;;;;33.03;27.24;96058.44;5036166;28;20033;-64
2021/07/16 10:28:41;;;;;;;6.68;2.75;;;;;;;32.95;26.50;96064.91;5036114;28;20033;-64
2021/07/16 10:31:28;;;;;;;4.10;2.67;;;;;;;32.76;27.91;96059.34;5035891;28;20511;-65
2021/07/16 10:34:14;;;;;;;14.57;2.97;;;;;;;32.77;27.65;96055.59;5035825;28;20516;-64
2021/07/16 10:36:41;;;;;;;12.45;3.42;;;;;;;32.83;25.97;96058.50;5031936;28;20073;-64
2021/07/16 10:39:09;;;;;;;13.70;3.00;;;;;;;32.62;27.08;96052.28;5035796;28;20025;-64
2021/07/16 10:41:38;;;;;;;8.93;3.47;;;;;;;32.84;26.89;96052.03;5035741;28;20109;-64
2021/07/16 10:44:09;;;;;;;9.05;3.17;;;;;;;33.07;26.09;96065.13;5035648;28;20030;-64
2021/07/16 10:46:38;;;;;;;5.30;3.03;;;;;;;32.99;29.30;96068.03;5035687;28;20049;-64
2021/07/16 10:49:08;;;;;;;7.05;3.22;;;;;;;33.02;28.03;96054.06;5035778;28;20049;-64
2021/07/16 10:51:36;;;;;;;7.50;2.63;;;;;;;33.20;27.59;96064.22;5035584;28;20037;-64
2021/07/16 10:54:05;;;;;;;8.00;2.88;;;;;;;32.89;26.00;96052.22;5035499;28;20025;-64
2021/07/16 10:56:44;;;;;;;10.18;2.95;;;;;;;32.78;26.94;96048.31;5035424;28;20038;-64
2021/07/16 10:59:11;;;;;;;8.48;3.10;;;;;;;32.99;25.37;96049.09;5035480;28;20037;-64
2021/07/16 11:01:40;;;;;;;6.13;2.75;;;;;;;32.97;25.23;96043.88;5035440;28;20545;-64
2021/07/16 11:04:07;;;;;;;8.50;3.33;;;;;;;33.25;27.26;96039.19;5034355;28;20112;-64
2021/07/16 11:06:54;;;;;;;4.38;2.75;;;;;;;33.26;26.67;96028.16;5035057;28;20025;-64
2021/07/16 11:09:34;;;;;;;5.10;3.10;;;;;;;33.16;28.64;96033.22;5035342;28;20037;-64
2021/07/16 11:12:18;;;;;;;4.53;2.97;;;;;;;33.25;27.26;96034.63;5035274;28;20018;-65
2021/07/16 11:14:44;;;;;;;6.13;3.00;;;;;;;32.94;26.19;96041.59;5035302;28;20026;-64
2021/07/16 11:17:23;;;;;;;9.75;3.50;;;;;;;32.83;27.87;96039.56;5034968;28;20025;-64
2021/07/16 11:20:14;;;;;;;8.82;2.88;;;;;;;32.87;27.57;96033.47;5035074;28;20033;-64
2021/07/16 11:23:03;;;;;;;6.25;3.03;;;;;;;32.88;26.77;96034.31;5034978;28;20033;-64
2021/07/16 11:25:30;;;;;;;5.95;2.40;;;;;;;32.95;27.12;96029.72;5035079;28;20035;-64
2021/07/16 11:27:55;;;;;;;11.20;2.97;;;;;;;32.79;26.09;96025.59;5035014;28;20029;-64
2021/07/16 11:30:22;;;;;;;7.75;2.83;;;;;;;32.89;27.29;96028.69;5034868;28;20071;-64
2021/07/16 11:32:47;;;;;;;7.93;3.20;;;;;;;32.92;27.27;96026.63;5034733;28;20057;-64